LTAU

Details ICAO LTAU (ASR)
Name ERKILET
Region Turkey
Timezone Europe/Istanbul (UTC+3.0)
Plans Departing 64
Arriving 69
Stats Elevation 3,463 ft / 1,056 m (AMSL)
Location 38.770384° 35.495427°
Runways 1
Magnetic Variation 5.654° E
Sunrise 2017-12-15 04:50:24 UTC / 2017-12-15 07:50:24 Local
Sunset 2017-12-15 14:18:38 UTC / 2017-12-15 17:18:38 Local
Advertisement - Login to hide

Runways

ID Width Length Bearing (true) Bearing (mag) Surface Threshold Offset Overrun Length
07 145 ft / 44 m 9,822 ft / 2,994 m 76.29° 70.64° Concrete 0 ft / 0 m 500 ft / 152 m
25 145 ft / 44 m 9,822 ft / 2,994 m 256.31° 250.66° Concrete 0 ft / 0 m 500 ft / 152 m

Approach Navaids

Runway Type Ident Frequency Range Bearing (true) Bearing (mag) Slope Elevation
25 Localiser IKSR 110.30 MHz 18 nm / 33 km 256.40° 250.75° - 3,453 ft / 1,052 m (AMSL)
25 Glidescope IKSR 110.30 MHz 10 nm / 19 km 256.30° 250.65° 3.00° 3,463 ft / 1,056 m (AMSL)

Map

Weather


0- 5 10 15 20 25 30 35+ Temperature / ° C

Clouds and Precipitation
Forecast for 2017-12-15 00:00 UTC. Updated 2 hours ago

Ground ~20,000 ft ~40,000 ft Winds

METAR

LTAU 142250Z 00000KT 7000 NSC M03/M04 Q1018 NOSIG

TAF

TAF LTAU 141640Z 1418/1518 VRB02KT 8000 NSC TEMPO 1504/1508 3200 BR= TAF LTCC 141640Z 1418/1518 VRB02KT CAVOK

Frequencies

Ground 121.95 MHz GND
Approach 122.10 MHz APP
Tower 122.10 MHz TWR
Warning: Do not use this data for real-world aviation or navigation. No guarantee of current accuracy is given.